Niebüll

DE-0861 · 石勒苏益格-荷尔斯泰因, 德国

使用的METAR站距离机场35 km。
罗盘
风向 的 风向 200° 直升机
风: 13 kt, 4 beaufort
0 ft 1.000 2.000 3.000 4.000 5.000
Cloud Cloud
FEW 1.400
Cloud Cloud Cloud Cloud
SCT 2.700
METAR EDXW 231950Z AUTO 20013KT 9999 // FEW014/// SCT027/// 05/04 Q0992

METAR Niebüll - DE-0861

Niebüll是,德国中的直升机场。 该机场位于纬度54,79390和经度8,84500。 这个机场没有ICAO代码,我们使用DE-0861作为参考。 机场在Bremen FIR中。

该航空气象观测是针对Westerland Sylt Airport在2024年2月23日 20:50, 当地时间进行的。

机场观察

风向为200°,速度为13 kt。

可见度为10 km 或者更多。

有几云在1.400 ft的高度 和 疏云,零星散落的云朵在2.700 ft的高度。 没有观察到天花板。

温度为5 °C,阵风为-1 °C。 露点为4 °C,相对湿度为93%。 海平面上的气压为992 hPa (QNH)。

白天

今天,太阳从07:29升起,在17:46降落。 这适用于Niebüll,世界夏令时可能有所不同。 当地时间与世界标准时间之间的时差为+1 小时。 当前,没有夏令时有效。

公司介绍

我们没有关于这个机场的公司信息。

体会

到Vliegles.nl去找飞行课程,跳伞和其他飞行体验。 浏览页面,了解Niebüll附近所有可用的活动。 你也可以使用搜索功能来寻找你所在地附近的特定飞行课程、跳伞或其他飞行体验。

乌云

1.400 ft FEW 几云
2.700 ft SCT 疏云,零星散落的云朵

温度 & 天气

温度 5 °C
露点 4 °C
相对湿度 93%
风寒 -1 °C
Kp-index 1 (0-9)

白天

日出
07:31 (10:22)
中午
12:40
日落
17:48

小工具

你想在你的网站上有一个关于Niebüll的当前航空天气(METAR)的小部件吗?

显示HTML代码
?>